createdAt,value
2023-01-25T00:01:44.322Z,21.48
2023-01-25T00:04:10.972Z,21.63
2023-01-25T00:06:38.806Z,23.42
2023-01-25T00:09:05.636Z,23.73
2023-01-25T00:11:32.103Z,23.63
2023-01-25T00:13:58.551Z,25.75
2023-01-25T00:16:25.002Z,23.48
2023-01-25T00:18:51.478Z,22.30
2023-01-25T00:21:18.893Z,21.88
2023-01-25T00:23:46.923Z,20.08
2023-01-25T00:26:13.897Z,19.63
2023-01-25T00:28:40.281Z,21.42
2023-01-25T00:31:07.370Z,20.15
2023-01-25T00:33:41.472Z,18.92
2023-01-25T00:36:22.731Z,18.50
2023-01-25T00:38:53.041Z,18.90
2023-01-25T00:41:19.616Z,22.05
2023-01-25T00:43:46.028Z,21.10
2023-01-25T00:46:14.774Z,21.23
2023-01-25T00:48:41.334Z,22.98
2023-01-25T00:51:07.768Z,19.13
2023-01-25T00:53:34.697Z,21.95
2023-01-25T00:56:02.453Z,20.10
2023-01-25T00:58:29.045Z,21.40
2023-01-25T01:00:56.543Z,20.63
2023-01-25T01:03:23.249Z,19.52
2023-01-25T01:05:58.588Z,20.90
2023-01-25T01:08:25.062Z,23.75
2023-01-25T01:10:51.453Z,23.98
2023-01-25T01:13:19.268Z,21.20
2023-01-25T01:15:45.697Z,23.98
2023-01-25T01:18:12.098Z,24.17
2023-01-25T01:20:38.524Z,24.75
2023-01-25T01:23:04.892Z,22.67
2023-01-25T01:25:32.348Z,20.25
2023-01-25T01:27:58.727Z,22.25
2023-01-25T01:30:26.772Z,24.77
2023-01-25T01:32:53.319Z,26.05
2023-01-25T01:35:19.803Z,27.13
2023-01-25T01:37:46.231Z,24.30
2023-01-25T01:40:14.538Z,25.20
2023-01-25T01:42:55.707Z,25.65
2023-01-25T01:45:40.787Z,25.83
2023-01-25T01:48:11.285Z,23.80
2023-01-25T01:50:37.842Z,25.38
2023-01-25T01:53:04.294Z,25.30
2023-01-25T01:55:30.816Z,21.65
2023-01-25T01:57:58.612Z,26.05
2023-01-25T02:00:26.642Z,23.40
2023-01-25T02:02:54.416Z,24.83
2023-01-25T02:05:25.977Z,28.85
2023-01-25T02:07:53.680Z,26.40
2023-01-25T02:10:20.452Z,26.98
2023-01-25T02:12:47.539Z,29.83
2023-01-25T02:15:14.300Z,32.67
2023-01-25T02:17:41.517Z,29.13
2023-01-25T02:20:14.673Z,25.42
2023-01-25T02:22:45.012Z,24.65
2023-01-25T02:25:14.220Z,25.42
2023-01-25T02:27:42.238Z,25.63
2023-01-25T02:30:09.451Z,28.05
2023-01-25T02:32:35.981Z,23.98
2023-01-25T02:35:02.440Z,29.55
2023-01-25T02:37:29.175Z,31.23
2023-01-25T02:39:55.651Z,28.02
2023-01-25T02:42:23.528Z,25.42
2023-01-25T02:44:50.805Z,26.80
2023-01-25T02:47:17.275Z,29.35
2023-01-25T02:49:43.713Z,27.60
2023-01-25T02:52:10.224Z,27.55
2023-01-25T02:54:36.761Z,36.17
2023-01-25T02:57:03.307Z,26.52
2023-01-25T02:59:31.299Z,27.50
2023-01-25T03:01:58.152Z,25.20
2023-01-25T03:04:24.571Z,27.35
2023-01-25T03:06:51.801Z,27.30
2023-01-25T03:09:18.300Z,30.70
2023-01-25T03:11:44.931Z,26.70
2023-01-25T03:14:11.351Z,28.75
2023-01-25T03:16:39.201Z,30.98
2023-01-25T03:19:05.722Z,28.20
2023-01-25T03:21:32.135Z,28.08
2023-01-25T03:23:59.316Z,31.70
2023-01-25T03:26:26.613Z,28.58
2023-01-25T03:28:53.135Z,23.88
2023-01-25T03:31:19.765Z,30.80
2023-01-25T03:33:48.568Z,31.80
2023-01-25T03:36:15.070Z,27.23
2023-01-25T03:38:41.542Z,30.98
2023-01-25T03:41:08.731Z,34.72
2023-01-25T03:43:35.173Z,31.52
2023-01-25T03:46:02.120Z,29.52
2023-01-25T03:48:28.828Z,31.63
2023-01-25T03:50:58.959Z,28.75
2023-01-25T03:53:32.866Z,31.58
2023-01-25T03:58:25.748Z,33.50
2023-01-25T04:00:54.423Z,31.77
2023-01-25T04:03:21.615Z,34.25
2023-01-25T04:05:48.156Z,31.67
2023-01-25T04:08:16.061Z,30.98
2023-01-25T04:10:42.551Z,33.03
2023-01-25T04:13:09.124Z,35.90
2023-01-25T04:15:35.681Z,44.00
2023-01-25T04:18:02.162Z,62.25
2023-01-25T04:20:28.602Z,32.45
2023-01-25T04:22:54.986Z,33.17
2023-01-25T04:25:22.836Z,30.98
2023-01-25T04:27:49.914Z,37.90
2023-01-25T04:30:16.530Z,28.33
2023-01-25T04:32:43.092Z,34.38
2023-01-25T04:35:09.956Z,43.20
2023-01-25T04:37:36.492Z,34.17
2023-01-25T04:40:04.172Z,47.08
2023-01-25T04:42:31.930Z,40.35
2023-01-25T04:44:58.358Z,36.13
2023-01-25T04:47:24.789Z,35.35
2023-01-25T04:49:51.187Z,121.15
2023-01-25T04:52:17.646Z,58.53
2023-01-25T04:54:44.160Z,59.20
2023-01-25T04:57:10.619Z,35.15
2023-01-25T04:59:38.439Z,92.88
2023-01-25T05:02:04.975Z,59.80
2023-01-25T05:04:31.380Z,44.67
2023-01-25T05:06:57.807Z,70.65
2023-01-25T05:09:24.213Z,46.85
2023-01-25T05:11:50.682Z,113.70
2023-01-25T05:14:17.187Z,79.63
2023-01-25T05:16:45.079Z,77.63
2023-01-25T05:19:12.155Z,63.65
2023-01-25T05:21:57.251Z,69.25
2023-01-25T05:24:23.795Z,37.53
2023-01-25T05:27:05.448Z,101.88
2023-01-25T05:29:32.672Z,122.20
2023-01-25T05:32:00.601Z,67.32
2023-01-25T05:34:27.119Z,79.97
2023-01-25T05:36:53.504Z,97.18
2023-01-25T05:39:20.341Z,117.65
2023-01-25T05:41:46.823Z,98.28
2023-01-25T05:44:13.414Z,70.43
2023-01-25T05:46:39.863Z,65.07
2023-01-25T05:49:07.876Z,57.10
2023-01-25T05:51:35.642Z,141.82
2023-01-25T05:54:02.177Z,199.77
2023-01-25T05:56:28.658Z,110.07
2023-01-25T05:58:55.516Z,116.45
2023-01-25T06:01:21.944Z,67.63
2023-01-25T06:03:48.642Z,146.32
2023-01-25T06:06:16.441Z,39.22
2023-01-25T06:08:42.932Z,69.78
2023-01-25T06:11:12.735Z,91.35
2023-01-25T06:13:39.252Z,96.68
2023-01-25T06:16:06.160Z,31.02
2023-01-25T06:18:33.660Z,57.60
2023-01-25T06:21:00.706Z,65.43
2023-01-25T06:23:28.994Z,155.23
2023-01-25T06:25:57.833Z,106.85
2023-01-25T06:28:24.331Z,149.98
2023-01-25T06:30:50.831Z,150.73
2023-01-25T06:33:17.321Z,111.10
2023-01-25T06:35:43.904Z,94.47
2023-01-25T06:38:10.565Z,109.00
2023-01-25T06:40:38.390Z,91.47
2023-01-25T06:43:07.895Z,142.68
2023-01-25T06:45:34.354Z,327.33
2023-01-25T06:48:00.818Z,111.57
2023-01-25T06:50:27.278Z,117.15
2023-01-25T06:52:54.149Z,70.40
2023-01-25T06:55:21.978Z,89.28
2023-01-25T06:57:50.180Z,64.43
2023-01-25T07:00:17.113Z,93.63
2023-01-25T07:02:43.608Z,94.88
2023-01-25T07:05:10.427Z,66.30
2023-01-25T07:07:37.279Z,99.47
2023-01-25T07:10:03.909Z,127.47
2023-01-25T07:12:30.497Z,83.70
2023-01-25T07:14:58.883Z,119.07
2023-01-25T07:17:25.266Z,56.20
2023-01-25T07:19:51.664Z,74.82
2023-01-25T07:22:18.221Z,89.53
2023-01-25T07:24:49.931Z,90.38
2023-01-25T07:27:16.659Z,155.10
2023-01-25T07:29:43.237Z,174.15
2023-01-25T07:32:11.810Z,157.52
2023-01-25T07:34:38.804Z,75.22
2023-01-25T07:37:05.349Z,87.35
2023-01-25T07:39:31.738Z,92.32
2023-01-25T07:41:58.246Z,166.55
2023-01-25T07:44:24.736Z,143.02
2023-01-25T07:46:51.192Z,206.55
2023-01-25T07:49:19.022Z,245.05
2023-01-25T07:51:45.524Z,136.23
2023-01-25T07:54:14.563Z,112.20
2023-01-25T07:56:41.049Z,160.07
2023-01-25T07:59:10.626Z,72.35
2023-01-25T08:01:37.590Z,175.43
2023-01-25T08:04:04.878Z,62.95
2023-01-25T08:06:39.199Z,72.57
2023-01-25T08:09:06.995Z,203.68
2023-01-25T08:11:33.886Z,93.57
2023-01-25T08:14:02.086Z,173.50
2023-01-25T08:16:29.026Z,251.13
2023-01-25T08:18:56.032Z,324.13
2023-01-25T08:21:25.403Z,227.05
2023-01-25T08:23:53.393Z,147.45
2023-01-25T08:26:21.063Z,314.50
2023-01-25T08:28:47.489Z,202.55
2023-01-25T08:31:15.015Z,241.82
2023-01-25T08:33:42.448Z,168.57
2023-01-25T08:36:10.192Z,140.15
2023-01-25T08:38:36.925Z,288.42
2023-01-25T08:41:08.658Z,192.95
2023-01-25T08:43:35.507Z,69.13
2023-01-25T08:46:02.221Z,115.13
2023-01-25T08:48:28.683Z,183.25
2023-01-25T08:50:55.521Z,137.00
2023-01-25T08:53:22.003Z,223.98
2023-01-25T08:55:48.726Z,250.38
2023-01-25T08:58:19.712Z,211.38
2023-01-25T09:00:46.279Z,170.05
2023-01-25T09:03:12.755Z,180.52
2023-01-25T09:05:39.698Z,127.45
2023-01-25T09:08:07.930Z,72.88
2023-01-25T09:10:34.662Z,60.22
2023-01-25T09:13:01.592Z,95.55
2023-01-25T09:15:29.397Z,119.30
2023-01-25T09:17:56.194Z,94.03
2023-01-25T09:20:22.947Z,81.32
2023-01-25T09:22:49.476Z,125.93
2023-01-25T09:25:15.931Z,194.02
2023-01-25T09:27:42.467Z,118.47
2023-01-25T09:30:18.149Z,101.50
2023-01-25T09:32:48.558Z,132.70
2023-01-25T09:35:15.205Z,74.78
2023-01-25T09:37:41.746Z,163.95
2023-01-25T09:40:17.814Z,115.43
2023-01-25T09:42:49.730Z,84.63
2023-01-25T09:45:21.245Z,99.05
2023-01-25T09:47:52.254Z,125.15
2023-01-25T09:50:42.976Z,144.95
2023-01-25T09:53:24.521Z,55.50
2023-01-25T09:55:54.040Z,134.90
2023-01-25T09:58:21.972Z,95.68
2023-01-25T10:00:51.059Z,235.63
2023-01-25T10:03:22.224Z,100.75
2023-01-25T10:05:49.798Z,164.38
2023-01-25T10:08:20.672Z,124.57
2023-01-25T10:10:50.372Z,202.98
2023-01-25T10:13:19.089Z,46.60
2023-01-25T10:15:48.158Z,109.30
2023-01-25T10:18:19.082Z,37.05
2023-01-25T10:20:48.894Z,119.38
2023-01-25T10:23:33.515Z,101.85
2023-01-25T10:26:00.558Z,80.18
2023-01-25T10:28:34.293Z,130.57
2023-01-25T10:31:02.242Z,95.40
2023-01-25T10:33:29.522Z,166.25
2023-01-25T10:36:00.033Z,78.30
2023-01-25T10:38:29.586Z,161.10
2023-01-25T10:40:58.717Z,99.53
2023-01-25T10:43:25.425Z,66.75
2023-01-25T10:45:51.904Z,160.45
2023-01-25T10:48:20.641Z,62.97
2023-01-25T10:50:54.102Z,122.00
2023-01-25T10:53:23.980Z,148.52
2023-01-25T10:56:06.406Z,108.00
2023-01-25T10:58:34.442Z,142.38
2023-01-25T11:01:01.678Z,76.25
2023-01-25T11:03:34.489Z,124.30
2023-01-25T11:06:01.069Z,124.65
2023-01-25T11:08:34.044Z,99.97
2023-01-25T11:11:00.634Z,81.23
2023-01-25T11:13:28.079Z,113.65
2023-01-25T11:15:56.166Z,68.40
2023-01-25T11:18:23.523Z,64.70
2023-01-25T11:21:03.456Z,37.83
2023-01-25T11:23:32.141Z,49.88
2023-01-25T11:26:11.078Z,44.88
2023-01-25T11:28:37.567Z,109.38
2023-01-25T11:31:04.275Z,31.50
2023-01-25T11:33:32.477Z,45.38
2023-01-25T11:36:06.285Z,37.42
2023-01-25T11:38:32.746Z,48.35
2023-01-25T11:41:05.681Z,28.40
2023-01-25T11:43:45.234Z,51.97
2023-01-25T11:46:25.381Z,52.58
2023-01-25T11:49:06.138Z,26.33
2023-01-25T11:51:35.932Z,22.02
2023-01-25T11:54:19.986Z,35.70
2023-01-25T11:56:52.571Z,26.85
2023-01-25T11:59:28.563Z,28.52
2023-01-25T12:01:59.772Z,18.40
2023-01-25T12:04:44.617Z,17.42
2023-01-25T12:07:14.075Z,18.70
2023-01-25T12:10:02.693Z,22.63
2023-01-25T12:12:35.985Z,23.17
2023-01-25T12:15:11.365Z,24.35
2023-01-25T12:17:45.122Z,23.88
2023-01-25T12:20:23.268Z,26.02
2023-01-25T12:22:54.887Z,17.40
2023-01-25T12:25:26.213Z,14.38
2023-01-25T12:27:58.964Z,14.60
2023-01-25T12:30:36.416Z,27.95
2023-01-25T12:33:14.374Z,26.85
2023-01-25T12:35:43.459Z,24.13
2023-01-25T12:38:12.526Z,28.20
2023-01-25T12:40:46.761Z,30.63
2023-01-25T12:43:15.702Z,29.13
2023-01-25T12:45:45.941Z,25.85
2023-01-25T12:48:16.928Z,25.70
2023-01-25T12:50:46.249Z,63.97
2023-01-25T12:53:17.295Z,28.00
2023-01-25T12:55:44.202Z,21.75
2023-01-25T12:58:15.533Z,44.25
2023-01-25T13:00:48.673Z,27.92
2023-01-25T13:03:21.986Z,23.65
2023-01-25T13:05:51.561Z,28.20
2023-01-25T13:08:31.079Z,26.58
2023-01-25T13:11:04.213Z,23.98
2023-01-25T13:13:31.297Z,26.90
2023-01-25T13:16:19.349Z,23.65
2023-01-25T13:18:47.196Z,28.05
2023-01-25T13:21:28.590Z,21.63
2023-01-25T13:24:08.823Z,21.77
2023-01-25T13:26:53.358Z,21.45
2023-01-25T13:29:53.095Z,21.98
2023-01-25T13:32:38.467Z,21.33
2023-01-25T13:35:24.604Z,20.38
2023-01-25T13:37:57.310Z,16.27
2023-01-25T13:40:28.813Z,16.85
2023-01-25T13:42:59.348Z,20.92
2023-01-25T13:45:26.325Z,26.13
2023-01-25T13:48:00.007Z,21.05
2023-01-25T13:50:30.712Z,19.60
2023-01-25T13:52:57.868Z,19.30
2023-01-25T13:55:24.443Z,19.67
2023-01-25T13:57:51.594Z,22.48
2023-01-25T14:00:19.979Z,40.33
2023-01-25T14:02:54.849Z,19.42
2023-01-25T14:05:22.213Z,20.55
2023-01-25T14:07:51.250Z,29.75
2023-01-25T14:10:24.085Z,27.05
2023-01-25T14:12:51.221Z,24.10
2023-01-25T14:15:18.350Z,16.88
2023-01-25T14:17:44.870Z,22.95
2023-01-25T14:20:17.575Z,14.77
2023-01-25T14:22:47.346Z,13.45
2023-01-25T14:25:17.040Z,14.15
2023-01-25T14:27:46.078Z,15.55
2023-01-25T14:30:16.585Z,17.13
2023-01-25T14:32:43.100Z,20.13
2023-01-25T14:35:42.710Z,16.90
2023-01-25T14:38:24.077Z,17.75
2023-01-25T14:40:53.507Z,19.15
2023-01-25T14:43:20.355Z,18.80
2023-01-25T14:45:46.863Z,21.30
2023-01-25T14:48:28.438Z,20.52
2023-01-25T14:51:02.388Z,16.45
2023-01-25T14:55:56.881Z,17.65
2023-01-25T14:58:24.409Z,21.45
2023-01-25T15:00:54.354Z,19.30
2023-01-25T15:03:22.552Z,18.48
2023-01-25T15:05:49.217Z,20.27
2023-01-25T15:08:16.694Z,15.43
2023-01-25T15:10:53.198Z,19.38
2023-01-25T15:13:22.424Z,19.08
2023-01-25T15:15:53.258Z,20.33
2023-01-25T15:18:38.472Z,22.52
2023-01-25T15:21:05.116Z,22.70
2023-01-25T15:23:31.692Z,22.35
2023-01-25T15:25:59.334Z,22.63
2023-01-25T15:28:29.562Z,19.02
2023-01-25T15:30:58.385Z,20.38
2023-01-25T15:33:25.855Z,20.10
2023-01-25T15:35:53.361Z,22.50
2023-01-25T15:38:20.076Z,16.90
2023-01-25T15:40:46.622Z,18.92
2023-01-25T15:43:15.373Z,19.65
2023-01-25T15:45:44.190Z,19.70
2023-01-25T15:48:12.693Z,20.48
2023-01-25T15:50:39.252Z,21.00
2023-01-25T15:53:05.691Z,20.67
2023-01-25T15:55:32.600Z,20.40
2023-01-25T15:57:59.121Z,19.23
2023-01-25T16:00:25.749Z,20.42
2023-01-25T16:02:53.654Z,20.15
2023-01-25T16:05:20.165Z,20.85
2023-01-25T16:07:46.661Z,22.63
2023-01-25T16:10:18.950Z,19.33
2023-01-25T16:12:45.475Z,21.40
2023-01-25T16:15:12.146Z,23.17
2023-01-25T16:17:38.654Z,26.15
2023-01-25T16:20:09.042Z,23.92
2023-01-25T16:22:36.001Z,25.15
2023-01-25T16:25:04.631Z,18.95
2023-01-25T16:27:35.778Z,18.45
2023-01-25T16:30:02.738Z,20.48
2023-01-25T16:32:29.229Z,18.13
2023-01-25T16:34:55.720Z,18.55
2023-01-25T16:37:23.540Z,19.60
2023-01-25T16:39:51.906Z,16.55
2023-01-25T16:42:18.911Z,18.08
2023-01-25T16:44:47.221Z,20.20
2023-01-25T16:47:14.197Z,18.60
2023-01-25T16:49:40.756Z,19.27
2023-01-25T16:52:07.544Z,18.92
2023-01-25T16:54:35.366Z,14.93
2023-01-25T16:57:08.691Z,18.33
2023-01-25T16:59:45.175Z,19.07
2023-01-25T17:02:12.725Z,20.38
2023-01-25T17:04:40.247Z,17.05
2023-01-25T17:07:08.611Z,19.10
2023-01-25T17:09:36.383Z,18.42
2023-01-25T17:12:02.930Z,17.83
2023-01-25T17:14:29.345Z,15.70
2023-01-25T17:16:55.828Z,19.95
2023-01-25T17:19:22.318Z,17.80
2023-01-25T17:21:48.820Z,17.67
2023-01-25T17:24:17.207Z,20.15
2023-01-25T17:26:45.048Z,20.45
2023-01-25T17:29:12.101Z,17.85
2023-01-25T17:31:39.880Z,20.58
2023-01-25T17:34:07.330Z,18.88
2023-01-25T17:36:34.119Z,15.10
2023-01-25T17:39:04.958Z,17.23
2023-01-25T17:41:31.988Z,21.00
2023-01-25T17:43:59.806Z,19.80
2023-01-25T17:46:30.016Z,20.85
2023-01-25T17:48:57.289Z,21.05
2023-01-25T17:51:24.975Z,21.42
2023-01-25T17:53:51.882Z,17.95
2023-01-25T17:56:19.180Z,17.60
2023-01-25T17:58:45.700Z,20.13
2023-01-25T18:01:14.688Z,18.50
2023-01-25T18:03:41.581Z,21.45
2023-01-25T18:06:09.511Z,20.05
2023-01-25T18:08:42.578Z,20.38
2023-01-25T18:11:10.224Z,18.50
2023-01-25T18:13:39.351Z,24.25
2023-01-25T18:16:06.459Z,21.25
2023-01-25T18:18:34.438Z,17.25
2023-01-25T18:21:08.287Z,24.58
2023-01-25T18:26:01.210Z,22.88
2023-01-25T18:28:27.782Z,57.40
2023-01-25T18:30:58.618Z,26.00
2023-01-25T18:33:25.209Z,19.95
2023-01-25T18:35:54.176Z,22.05
2023-01-25T18:38:20.990Z,25.40
2023-01-25T18:40:47.575Z,21.20
2023-01-25T18:43:16.486Z,23.75
2023-01-25T18:45:43.239Z,25.08
2023-01-25T18:48:14.544Z,22.77
2023-01-25T18:50:42.263Z,36.03
2023-01-25T18:53:10.325Z,24.42
2023-01-25T18:55:36.848Z,27.02
2023-01-25T18:58:04.198Z,32.58
2023-01-25T19:00:30.984Z,25.02
2023-01-25T19:02:57.609Z,25.52
2023-01-25T19:05:24.137Z,26.92
2023-01-25T19:07:50.830Z,21.88
2023-01-25T19:10:18.850Z,19.50
2023-01-25T19:12:45.332Z,20.55
2023-01-25T19:15:12.007Z,20.10
2023-01-25T19:17:38.556Z,18.13
2023-01-25T19:20:05.492Z,14.23
2023-01-25T19:22:31.993Z,14.73
2023-01-25T19:24:58.550Z,14.82
2023-01-25T19:27:28.860Z,15.52
2023-01-25T19:29:55.530Z,18.63
2023-01-25T19:32:22.079Z,20.90
2023-01-25T19:34:48.787Z,19.33
2023-01-25T19:37:15.458Z,19.20
2023-01-25T19:39:41.948Z,17.15
2023-01-25T19:42:09.084Z,18.05
2023-01-25T19:44:36.901Z,17.63
2023-01-25T19:47:03.628Z,17.73
2023-01-25T19:49:30.176Z,14.00
2023-01-25T19:51:56.810Z,16.33
2023-01-25T19:54:24.171Z,24.63
2023-01-25T19:56:51.041Z,81.20
2023-01-25T19:59:18.801Z,29.77
2023-01-25T20:01:46.791Z,15.60
2023-01-25T20:04:14.530Z,17.13
2023-01-25T20:06:41.438Z,19.17
2023-01-25T20:09:08.353Z,15.18
2023-01-25T20:11:34.891Z,16.83
2023-01-25T20:14:02.269Z,18.73
2023-01-25T20:16:30.503Z,14.38
2023-01-25T20:18:59.532Z,14.23
2023-01-25T20:21:26.685Z,17.80
2023-01-25T20:23:56.071Z,16.63
2023-01-25T20:26:23.956Z,15.10
2023-01-25T20:28:51.710Z,15.27
2023-01-25T20:31:19.255Z,16.30
2023-01-25T20:33:45.885Z,19.00
2023-01-25T20:36:13.779Z,16.23
2023-01-25T20:38:40.270Z,32.50
2023-01-25T20:41:07.553Z,13.65
2023-01-25T20:43:34.213Z,12.13
2023-01-25T20:46:01.075Z,15.18
2023-01-25T20:48:28.083Z,12.70
2023-01-25T20:51:00.041Z,15.27
2023-01-25T20:53:27.895Z,16.80
2023-01-25T20:55:54.812Z,19.77
2023-01-25T20:58:21.401Z,16.67
2023-01-25T21:00:47.898Z,16.83
2023-01-25T21:03:14.416Z,14.98
2023-01-25T21:05:48.385Z,35.47
2023-01-25T21:08:14.918Z,19.08
2023-01-25T21:10:47.549Z,18.30
2023-01-25T21:13:14.071Z,20.25
2023-01-25T21:15:40.565Z,17.88
2023-01-25T21:18:07.080Z,21.58
2023-01-25T21:20:35.145Z,19.60
2023-01-25T21:23:01.681Z,19.20
2023-01-25T21:25:28.172Z,20.23
2023-01-25T21:27:56.064Z,24.90
2023-01-25T21:30:23.225Z,88.93
2023-01-25T21:32:49.969Z,28.65
2023-01-25T21:35:16.396Z,23.17
2023-01-25T21:37:44.618Z,20.35
2023-01-25T21:40:11.741Z,18.38
2023-01-25T21:42:38.134Z,20.10
2023-01-25T21:45:25.293Z,19.65
2023-01-25T21:47:51.789Z,18.08
2023-01-25T21:50:36.903Z,18.05
2023-01-25T21:53:03.370Z,26.23
2023-01-25T21:55:29.986Z,18.88
2023-01-25T21:57:56.513Z,15.75
2023-01-25T22:00:24.744Z,16.45
2023-01-25T22:02:51.856Z,18.50
2023-01-25T22:05:19.174Z,17.23
2023-01-25T22:07:45.709Z,16.75
2023-01-25T22:10:12.616Z,15.10
2023-01-25T22:12:39.425Z,13.07
2023-01-25T22:15:06.997Z,12.70
2023-01-25T22:17:34.843Z,19.50
2023-01-25T22:20:01.262Z,17.65
2023-01-25T22:22:27.752Z,42.03
2023-01-25T22:24:54.213Z,20.42
2023-01-25T22:27:27.743Z,16.60
2023-01-25T22:29:54.314Z,16.45
2023-01-25T22:32:20.724Z,17.17
2023-01-25T22:34:48.530Z,43.80
2023-01-25T22:37:15.027Z,20.67
2023-01-25T22:39:41.667Z,21.63
2023-01-25T22:42:08.214Z,20.23
2023-01-25T22:44:34.705Z,21.40
2023-01-25T22:47:01.106Z,22.25
2023-01-25T22:49:27.521Z,21.75
2023-01-25T22:51:55.337Z,30.45
2023-01-25T22:54:21.871Z,23.33
2023-01-25T22:56:48.316Z,34.33
2023-01-25T22:59:18.716Z,21.77
2023-01-25T23:01:45.452Z,20.17
2023-01-25T23:04:12.026Z,26.05
2023-01-25T23:06:39.000Z,23.95
2023-01-25T23:09:07.113Z,15.82
2023-01-25T23:11:37.057Z,13.32
2023-01-25T23:14:23.508Z,11.55
2023-01-25T23:16:49.981Z,12.20
2023-01-25T23:19:16.456Z,11.73
2023-01-25T23:21:43.009Z,11.50
2023-01-25T23:24:10.892Z,13.40
2023-01-25T23:26:37.826Z,13.30
2023-01-25T23:29:05.266Z,11.88
2023-01-25T23:31:31.813Z,13.77
2023-01-25T23:33:59.683Z,12.57
2023-01-25T23:36:27.483Z,12.73
2023-01-25T23:38:54.154Z,15.02
2023-01-25T23:41:22.744Z,13.75
2023-01-25T23:43:49.417Z,12.18
2023-01-25T23:46:16.846Z,11.27
2023-01-25T23:48:43.394Z,12.65
2023-01-25T23:51:10.983Z,15.27
2023-01-25T23:53:38.084Z,13.23
2023-01-25T23:56:06.245Z,12.93
2023-01-25T23:58:34.545Z,14.00
